createdAt,value
2017-12-26T00:00:52.367Z,100343.92
2017-12-26T00:01:57.361Z,100337.31
2017-12-26T00:03:01.667Z,100337.31
2017-12-26T00:04:05.919Z,100328.49
2017-12-26T00:05:10.476Z,100333.31
2017-12-26T00:06:14.870Z,100327.72
2017-12-26T00:07:19.170Z,100312.70
2017-12-26T00:08:23.432Z,100321.92
2017-12-26T00:09:27.792Z,100339.01
2017-12-26T00:10:32.059Z,100331.17
2017-12-26T00:11:36.267Z,100326.20
2017-12-26T00:12:40.472Z,100340.27
2017-12-26T00:13:46.543Z,100334.56
2017-12-26T00:14:50.757Z,100326.13
2017-12-26T00:15:55.101Z,100314.30
2017-12-26T00:17:00.166Z,100321.45
2017-12-26T00:18:04.382Z,100315.73
2017-12-26T00:19:08.620Z,100307.31
2017-12-26T00:20:12.846Z,100305.10
2017-12-26T00:21:17.039Z,100304.64
2017-12-26T00:22:22.392Z,100315.33
2017-12-26T00:23:26.896Z,100314.91
2017-12-26T00:24:31.910Z,100319.27
2017-12-26T00:25:36.409Z,100323.73
2017-12-26T00:26:40.775Z,100335.64
2017-12-26T00:27:45.751Z,100311.82
2017-12-26T00:28:50.820Z,100313.08
2017-12-26T00:29:55.019Z,100306.92
2017-12-26T00:30:59.636Z,100302.05
2017-12-26T00:32:03.944Z,100324.09
2017-12-26T00:33:08.568Z,100292.77
2017-12-26T00:34:12.782Z,100297.59
2017-12-26T00:35:17.315Z,100289.62
2017-12-26T00:36:21.575Z,100291.39
2017-12-26T00:37:25.788Z,100290.95
2017-12-26T00:38:31.909Z,100288.31
2017-12-26T00:39:36.196Z,100289.15
2017-12-26T00:40:49.223Z,100319.64
2017-12-26T00:41:54.187Z,100304.29
2017-12-26T00:42:58.512Z,100282.73
2017-12-26T00:44:02.771Z,100263.27
2017-12-26T00:45:07.157Z,100276.56
2017-12-26T00:46:12.051Z,100286.22
2017-12-26T00:47:16.214Z,100272.95
2017-12-26T00:48:20.490Z,100257.97
2017-12-26T00:49:24.781Z,100256.63
2017-12-26T00:50:28.986Z,100262.33
2017-12-26T00:51:33.176Z,100256.61
2017-12-26T00:52:37.658Z,100262.32
2017-12-26T00:53:41.969Z,100255.19
2017-12-26T00:54:46.205Z,100260.49
2017-12-26T00:55:50.400Z,100256.10
2017-12-26T00:56:55.112Z,100266.70
2017-12-26T00:57:59.394Z,100257.93
2017-12-26T00:59:03.907Z,100252.30
2017-12-26T01:00:16.007Z,100244.77
2017-12-26T01:01:20.278Z,100245.58
2017-12-26T01:03:36.603Z,100237.63
2017-12-26T01:04:40.756Z,100238.53
2017-12-26T01:05:45.047Z,100236.38
2017-12-26T01:06:49.245Z,100239.91
2017-12-26T01:07:53.546Z,100234.65
2017-12-26T01:08:59.577Z,100235.44
2017-12-26T01:10:04.038Z,100224.41
2017-12-26T01:11:08.552Z,100235.89
2017-12-26T01:12:12.832Z,100233.80
2017-12-26T01:13:17.684Z,100237.83
2017-12-26T01:14:21.881Z,100215.75
2017-12-26T01:15:26.444Z,100205.12
2017-12-26T01:16:31.745Z,100209.05
2017-12-26T01:17:36.069Z,100214.36
2017-12-26T01:18:40.293Z,100212.63
2017-12-26T01:19:45.468Z,100209.89
2017-12-26T01:20:49.676Z,100209.94
2017-12-26T01:21:53.942Z,100213.84
2017-12-26T01:22:58.132Z,100198.42
2017-12-26T01:25:15.345Z,100212.22
2017-12-26T01:26:19.548Z,100200.78
2017-12-26T01:27:23.848Z,100210.55
2017-12-26T01:28:28.484Z,100194.58
2017-12-26T01:29:32.731Z,100193.73
2017-12-26T01:30:37.326Z,100198.15
2017-12-26T01:31:41.654Z,100202.05
2017-12-26T01:32:45.896Z,100198.11
2017-12-26T01:33:50.651Z,100193.27
2017-12-26T01:34:55.837Z,100194.98
2017-12-26T01:36:00.178Z,100199.84
2017-12-26T01:37:04.465Z,100194.22
2017-12-26T01:38:08.634Z,100182.72
2017-12-26T01:39:13.016Z,100183.58
2017-12-26T01:40:17.564Z,100191.22
2017-12-26T01:41:21.932Z,100188.53
2017-12-26T01:42:26.078Z,100180.09
2017-12-26T01:43:30.325Z,100177.38
2017-12-26T01:44:34.630Z,100173.05
2017-12-26T01:45:39.061Z,100168.32
2017-12-26T01:46:45.093Z,100178.02
2017-12-26T01:47:49.326Z,100161.64
2017-12-26T01:48:54.171Z,100166.03
2017-12-26T01:49:58.370Z,100166.51
2017-12-26T01:51:02.555Z,100186.81
2017-12-26T01:52:06.832Z,100162.95
2017-12-26T01:53:11.860Z,100160.39
2017-12-26T01:54:16.035Z,100157.69
2017-12-26T01:55:20.281Z,100153.31
2017-12-26T01:56:24.466Z,100134.17
2017-12-26T01:57:28.732Z,100149.25
2017-12-26T01:58:32.909Z,100165.13
2017-12-26T01:59:37.483Z,100159.05
2017-12-26T02:00:42.461Z,100150.30
2017-12-26T02:01:46.698Z,100145.38
2017-12-26T02:02:50.890Z,100140.95
2017-12-26T02:03:55.506Z,100136.14
2017-12-26T02:04:59.740Z,100132.20
2017-12-26T02:06:08.520Z,100131.70
2017-12-26T02:07:18.732Z,100126.88
2017-12-26T02:08:32.090Z,100117.22
2017-12-26T02:09:36.910Z,100126.99
2017-12-26T02:10:41.116Z,100113.73
2017-12-26T02:11:45.389Z,100115.45
2017-12-26T02:12:50.018Z,100107.09
2017-12-26T02:13:54.679Z,100086.39
2017-12-26T02:14:58.994Z,100102.75
2017-12-26T02:16:03.386Z,100104.09
2017-12-26T02:17:07.803Z,100107.55
2017-12-26T02:18:11.936Z,100109.34
2017-12-26T02:19:16.442Z,100102.73
2017-12-26T02:20:20.684Z,100097.84
2017-12-26T02:21:24.912Z,100098.36
2017-12-26T02:22:29.138Z,100091.44
2017-12-26T02:23:33.734Z,100090.01
2017-12-26T02:24:38.234Z,100085.45
2017-12-26T02:25:42.554Z,100083.19
2017-12-26T02:26:46.727Z,100060.45
2017-12-26T02:27:50.898Z,100079.03
2017-12-26T02:28:55.598Z,100077.22
2017-12-26T02:29:59.734Z,100067.52
2017-12-26T02:31:04.471Z,100052.08
2017-12-26T02:32:08.677Z,100080.29
2017-12-26T02:33:13.207Z,100072.43
2017-12-26T02:34:17.450Z,100069.35
2017-12-26T02:35:21.659Z,100064.23
2017-12-26T02:36:25.968Z,100076.58
2017-12-26T02:37:30.510Z,100071.37
2017-12-26T02:38:34.680Z,100080.13
2017-12-26T02:39:38.868Z,100064.75
2017-12-26T02:40:44.408Z,100072.63
2017-12-26T02:41:48.614Z,100069.19
2017-12-26T02:42:52.823Z,100064.39
2017-12-26T02:43:57.874Z,100069.59
2017-12-26T02:45:04.143Z,100054.49
2017-12-26T02:46:08.625Z,100084.89
2017-12-26T02:47:12.817Z,100060.73
2017-12-26T02:48:18.665Z,100050.94
2017-12-26T02:49:22.924Z,100057.98
2017-12-26T02:50:27.725Z,100040.02
2017-12-26T02:51:31.888Z,100038.65
2017-12-26T02:52:36.043Z,100036.52
2017-12-26T02:53:40.297Z,100019.30
2017-12-26T02:54:44.535Z,100024.66
2017-12-26T02:55:49.065Z,100036.19
2017-12-26T02:56:53.623Z,100040.67
2017-12-26T02:57:58.122Z,100009.95
2017-12-26T02:59:02.264Z,100036.28
2017-12-26T03:00:09.100Z,100013.80
2017-12-26T03:01:13.739Z,100011.71
2017-12-26T03:02:18.240Z,100004.27
2017-12-26T03:03:22.444Z,99997.62
2017-12-26T03:04:26.664Z,100006.84
2017-12-26T03:05:30.846Z,100012.72
2017-12-26T03:06:35.174Z,100011.81
2017-12-26T03:07:39.501Z,100003.45
2017-12-26T03:08:44.913Z,99994.78
2017-12-26T03:09:49.139Z,100001.05
2017-12-26T03:10:53.259Z,99994.01
2017-12-26T03:11:57.496Z,99992.71
2017-12-26T03:13:01.855Z,99990.97
2017-12-26T03:14:06.290Z,99986.16
2017-12-26T03:15:12.568Z,99991.81
2017-12-26T03:16:23.053Z,99975.51
2017-12-26T03:17:27.200Z,99995.27
2017-12-26T03:18:31.336Z,99962.68
2017-12-26T03:19:35.459Z,99975.51
2017-12-26T03:20:39.982Z,99974.23
2017-12-26T03:21:44.135Z,99967.67
2017-12-26T03:22:48.306Z,99973.87
2017-12-26T03:23:52.983Z,99972.53
2017-12-26T03:24:57.127Z,99962.75
2017-12-26T03:26:01.355Z,99961.92
2017-12-26T03:27:05.810Z,99962.41
2017-12-26T03:28:09.952Z,99964.76
2017-12-26T03:29:14.159Z,99954.63
2017-12-26T03:30:19.243Z,99947.55
2017-12-26T03:31:23.493Z,99960.33
2017-12-26T03:32:37.575Z,99933.60
2017-12-26T03:33:41.721Z,99938.56
2017-12-26T03:34:45.865Z,99940.29
2017-12-26T03:35:50.085Z,99936.80
2017-12-26T03:36:54.929Z,99931.47
2017-12-26T03:37:59.067Z,99922.72
2017-12-26T03:39:03.522Z,99931.02
2017-12-26T03:40:07.830Z,99913.05
2017-12-26T03:41:11.963Z,99935.04
2017-12-26T03:42:16.352Z,99919.17
2017-12-26T03:43:20.549Z,99923.70
2017-12-26T03:44:24.770Z,99912.59
2017-12-26T03:45:29.119Z,99913.09
2017-12-26T03:46:33.263Z,99898.09
2017-12-26T03:47:37.491Z,99888.86
2017-12-26T03:48:41.950Z,99883.62
2017-12-26T03:49:46.074Z,99876.04
2017-12-26T03:50:50.523Z,99869.89
2017-12-26T03:51:54.652Z,99867.67
2017-12-26T03:52:58.886Z,99869.11
2017-12-26T03:54:03.134Z,99862.99
2017-12-26T03:55:07.510Z,99848.13
2017-12-26T03:56:11.774Z,99844.61
2017-12-26T03:57:16.850Z,99860.87
2017-12-26T03:58:21.072Z,99869.36
2017-12-26T03:59:25.221Z,99873.80
2017-12-26T04:00:29.719Z,99875.55
2017-12-26T04:01:33.886Z,99835.58
2017-12-26T04:02:38.006Z,99870.66
2017-12-26T04:03:42.830Z,99856.92
2017-12-26T04:04:46.962Z,99857.88
2017-12-26T04:05:51.730Z,99859.27
2017-12-26T04:06:55.894Z,99851.88
2017-12-26T04:08:00.083Z,99848.89
2017-12-26T04:09:04.493Z,99840.56
2017-12-26T04:10:08.624Z,99845.73
2017-12-26T04:11:12.726Z,99840.41
2017-12-26T04:12:16.877Z,99819.69
2017-12-26T04:13:23.925Z,99814.02
2017-12-26T04:14:28.359Z,99826.70
2017-12-26T04:15:32.678Z,99821.56
2017-12-26T04:16:37.131Z,99806.55
2017-12-26T04:17:41.270Z,99812.23
2017-12-26T04:18:46.385Z,99807.98
2017-12-26T04:19:51.051Z,99818.92
2017-12-26T04:20:55.505Z,99819.84
2017-12-26T04:21:59.640Z,99810.17
2017-12-26T04:23:03.803Z,99799.92
2017-12-26T04:24:15.216Z,99807.52
2017-12-26T04:25:19.383Z,99796.19
2017-12-26T04:26:23.545Z,99793.48
2017-12-26T04:27:27.977Z,99789.62
2017-12-26T04:28:32.206Z,99791.67
2017-12-26T04:29:36.398Z,99786.97
2017-12-26T04:30:40.534Z,99794.42
2017-12-26T04:31:45.084Z,99784.77
2017-12-26T04:32:49.247Z,99781.16
2017-12-26T04:33:54.302Z,99779.09
2017-12-26T04:34:58.510Z,99757.86
2017-12-26T04:36:02.636Z,99770.60
2017-12-26T04:37:06.886Z,99761.07
2017-12-26T04:38:11.040Z,99759.66
2017-12-26T04:39:15.448Z,99764.13
2017-12-26T04:40:19.692Z,99758.77
2017-12-26T04:41:24.094Z,99745.53
2017-12-26T04:42:28.199Z,99748.52
2017-12-26T04:43:32.326Z,99740.09
2017-12-26T04:44:36.441Z,99742.65
2017-12-26T04:45:41.249Z,99741.75
2017-12-26T04:46:46.327Z,99723.71
2017-12-26T04:47:51.131Z,99732.08
2017-12-26T04:48:55.477Z,99729.91
2017-12-26T04:49:59.641Z,99733.38
2017-12-26T04:51:04.191Z,99736.39
2017-12-26T04:52:08.354Z,99751.97
2017-12-26T04:53:12.585Z,99741.78
2017-12-26T04:54:17.206Z,99728.13
2017-12-26T04:55:21.457Z,99730.27
2017-12-26T04:56:27.157Z,99723.31
2017-12-26T04:57:31.269Z,99712.74
2017-12-26T04:58:36.067Z,99711.80
2017-12-26T04:59:40.270Z,99708.70
2017-12-26T05:00:45.424Z,99698.20
2017-12-26T05:01:49.509Z,99690.19
2017-12-26T05:02:53.921Z,99688.92
2017-12-26T05:03:58.064Z,99688.06
2017-12-26T05:05:02.173Z,99680.16
2017-12-26T05:06:06.663Z,99695.56
2017-12-26T05:07:10.861Z,99690.16
2017-12-26T05:08:17.311Z,99692.50
2017-12-26T05:09:21.820Z,99698.59
2017-12-26T05:10:26.011Z,99689.59
2017-12-26T05:11:30.156Z,99686.09
2017-12-26T05:12:34.452Z,99689.03
2017-12-26T05:13:38.581Z,99683.45
2017-12-26T05:14:43.314Z,99669.34
2017-12-26T05:15:47.746Z,99662.92
2017-12-26T05:16:51.863Z,99653.70
2017-12-26T05:17:56.221Z,99665.19
2017-12-26T05:19:00.449Z,99650.75
2017-12-26T05:20:04.596Z,99639.31
2017-12-26T05:21:09.362Z,99635.82
2017-12-26T05:22:13.555Z,99629.92
2017-12-26T05:23:20.009Z,99622.69
2017-12-26T05:24:24.127Z,99616.56
2017-12-26T05:25:33.076Z,99620.47
2017-12-26T05:26:37.341Z,99627.08
2017-12-26T05:27:41.781Z,99599.75
2017-12-26T05:28:45.925Z,99609.94
2017-12-26T05:29:50.162Z,99604.99
2017-12-26T05:30:55.333Z,99607.67
2017-12-26T05:31:59.500Z,99595.03
2017-12-26T05:33:04.566Z,99600.98
2017-12-26T05:34:08.790Z,99587.61
2017-12-26T05:35:12.925Z,99579.25
2017-12-26T05:36:17.069Z,99575.50
2017-12-26T05:37:22.935Z,99569.70
2017-12-26T05:38:27.658Z,99575.75
2017-12-26T05:39:32.182Z,99571.94
2017-12-26T05:40:37.569Z,99563.25
2017-12-26T05:41:41.971Z,99559.25
2017-12-26T05:42:46.133Z,99570.18
2017-12-26T05:43:50.259Z,99557.24
2017-12-26T05:44:55.514Z,99554.02
2017-12-26T05:45:59.902Z,99549.11
2017-12-26T05:47:04.163Z,99550.23
2017-12-26T05:48:10.871Z,99534.66
2017-12-26T05:49:14.991Z,99533.75
2017-12-26T05:50:19.090Z,99548.39
2017-12-26T05:51:23.641Z,99539.93
2017-12-26T05:52:27.858Z,99540.69
2017-12-26T05:53:31.984Z,99533.95
2017-12-26T05:54:36.154Z,99531.63
2017-12-26T05:55:40.270Z,99525.46
2017-12-26T05:56:44.404Z,99532.30
2017-12-26T05:57:48.934Z,99527.55
2017-12-26T05:58:53.462Z,99540.85
2017-12-26T05:59:57.663Z,99527.91
2017-12-26T06:01:02.246Z,99555.48
2017-12-26T06:02:06.365Z,99536.94
2017-12-26T06:03:10.514Z,99534.70
2017-12-26T06:04:14.968Z,99527.09
2017-12-26T06:05:19.178Z,99528.42
2017-12-26T06:06:23.309Z,99527.63
2017-12-26T06:07:27.409Z,99525.40
2017-12-26T06:08:31.648Z,99524.47
2017-12-26T06:09:35.760Z,99520.36
2017-12-26T06:10:39.995Z,99506.25
2017-12-26T06:11:44.993Z,99518.03
2017-12-26T06:12:49.098Z,99531.72
2017-12-26T06:13:53.354Z,99518.02
2017-12-26T06:14:57.489Z,99517.47
2017-12-26T06:16:02.079Z,99518.71
2017-12-26T06:17:06.485Z,99505.63
2017-12-26T06:18:10.873Z,99501.17
2017-12-26T06:19:14.975Z,99508.56
2017-12-26T06:20:19.161Z,99498.31
2017-12-26T06:21:23.339Z,99517.08
2017-12-26T06:22:27.776Z,99533.89
2017-12-26T06:23:31.903Z,99509.54
2017-12-26T06:24:36.135Z,99505.03
2017-12-26T06:25:40.326Z,99517.38
2017-12-26T06:26:45.346Z,99505.50
2017-12-26T06:27:50.199Z,99506.37
2017-12-26T06:28:54.596Z,99511.99
2017-12-26T06:29:58.819Z,99523.01
2017-12-26T06:31:03.299Z,99506.23
2017-12-26T06:32:07.562Z,99498.73
2017-12-26T06:33:11.874Z,99522.94
2017-12-26T06:34:16.959Z,99481.63
2017-12-26T06:35:21.478Z,99504.89
2017-12-26T06:36:27.301Z,99482.39
2017-12-26T06:37:31.565Z,99483.81
2017-12-26T06:38:36.103Z,99493.90
2017-12-26T06:39:40.220Z,99482.42
2017-12-26T06:40:48.598Z,99489.78
2017-12-26T06:41:52.751Z,99489.23
2017-12-26T06:42:56.926Z,99506.55
2017-12-26T06:44:01.184Z,99504.19
2017-12-26T06:45:06.735Z,99491.95
2017-12-26T06:46:11.541Z,99488.08
2017-12-26T06:47:15.725Z,99478.81
2017-12-26T06:48:20.124Z,99484.47
2017-12-26T06:49:24.338Z,99497.55
2017-12-26T06:50:28.734Z,99500.58
2017-12-26T06:51:32.922Z,99499.76
2017-12-26T06:52:37.638Z,99490.10
2017-12-26T06:53:42.738Z,99482.93
2017-12-26T06:54:46.980Z,99479.80
2017-12-26T06:55:52.026Z,99477.49
2017-12-26T06:56:56.505Z,99475.33
2017-12-26T06:58:00.687Z,99465.13
2017-12-26T06:59:05.227Z,99469.48
2017-12-26T07:00:16.642Z,99468.11
2017-12-26T07:01:20.822Z,99482.52
2017-12-26T07:02:24.919Z,99489.96
2017-12-26T07:03:29.158Z,99485.67
2017-12-26T07:04:33.302Z,99477.73
2017-12-26T07:05:37.795Z,99488.78
2017-12-26T07:06:42.003Z,99466.69
2017-12-26T07:07:46.142Z,99465.70
2017-12-26T07:08:50.391Z,99475.25
2017-12-26T07:09:54.574Z,99482.64
2017-12-26T07:10:58.686Z,99462.37
2017-12-26T07:12:02.816Z,99437.23
2017-12-26T07:13:06.938Z,99456.53
2017-12-26T07:14:11.088Z,99462.37
2017-12-26T07:15:16.394Z,99466.59
2017-12-26T07:16:20.889Z,99452.94
2017-12-26T07:17:25.409Z,99454.27
2017-12-26T07:18:29.828Z,99453.97
2017-12-26T07:19:37.976Z,99467.95
2017-12-26T07:20:46.251Z,99470.16
2017-12-26T07:22:52.985Z,99458.19
2017-12-26T07:23:57.187Z,99456.10
2017-12-26T07:25:01.351Z,99462.69
2017-12-26T07:26:05.549Z,99455.19
2017-12-26T07:27:14.799Z,99457.48
2017-12-26T07:28:19.233Z,99464.38
2017-12-26T07:29:23.964Z,99482.22
2017-12-26T07:30:28.205Z,99469.06
2017-12-26T07:31:32.737Z,99467.70
2017-12-26T07:32:36.914Z,99468.80
2017-12-26T07:33:41.039Z,99477.25
2017-12-26T07:34:46.455Z,99469.45
2017-12-26T07:35:51.717Z,99482.30
2017-12-26T07:36:55.826Z,99470.24
2017-12-26T07:38:00.495Z,99478.21
2017-12-26T07:39:04.703Z,99486.16
2017-12-26T07:40:24.713Z,99488.91
2017-12-26T07:41:29.178Z,99485.97
2017-12-26T07:42:33.364Z,99474.50
2017-12-26T07:43:38.339Z,99500.05
2017-12-26T07:44:43.490Z,99487.30
2017-12-26T07:45:49.531Z,99476.00
2017-12-26T07:46:54.452Z,99491.86
2017-12-26T07:47:58.831Z,99493.98
2017-12-26T07:49:03.350Z,99492.20
2017-12-26T07:50:07.637Z,99483.10
2017-12-26T07:51:12.011Z,99490.72
2017-12-26T07:52:16.176Z,99488.08
2017-12-26T07:53:21.223Z,99500.53
2017-12-26T07:54:25.325Z,99493.58
2017-12-26T07:55:29.462Z,99488.55
2017-12-26T07:56:33.855Z,99499.42
2017-12-26T07:57:38.458Z,99502.36
2017-12-26T07:58:43.574Z,99483.97
2017-12-26T07:59:48.061Z,99508.56
2017-12-26T08:00:52.672Z,99495.80
2017-12-26T08:01:56.874Z,99510.92
2017-12-26T08:03:01.050Z,99506.97
2017-12-26T08:04:05.254Z,99497.27
2017-12-26T08:05:11.530Z,99501.00
2017-12-26T08:06:16.070Z,99493.47
2017-12-26T08:07:20.339Z,99510.03
2017-12-26T08:08:24.919Z,99526.21
2017-12-26T08:09:29.178Z,99520.44
2017-12-26T08:10:33.315Z,99522.77
2017-12-26T08:11:37.509Z,99512.61
2017-12-26T08:12:42.745Z,99506.91
2017-12-26T08:13:47.756Z,99546.58
2017-12-26T08:14:52.508Z,99519.30
2017-12-26T08:15:56.949Z,99556.88
2017-12-26T08:17:01.373Z,99535.14
2017-12-26T08:18:05.869Z,99548.09
2017-12-26T08:19:10.047Z,99526.64
2017-12-26T08:20:14.245Z,99547.15
2017-12-26T08:21:18.354Z,99544.69
2017-12-26T08:22:30.507Z,99555.52
2017-12-26T08:23:35.054Z,99545.56
2017-12-26T08:24:39.207Z,99565.44
2017-12-26T08:25:43.382Z,99547.49
2017-12-26T08:26:47.641Z,99546.60
2017-12-26T08:27:51.808Z,99544.20
2017-12-26T08:28:56.643Z,99545.62
2017-12-26T08:30:03.108Z,99556.20
2017-12-26T08:31:07.606Z,99557.19
2017-12-26T08:32:11.765Z,99557.80
2017-12-26T08:33:16.274Z,99545.15
2017-12-26T08:34:20.454Z,99542.96
2017-12-26T08:35:25.079Z,99552.99
2017-12-26T08:36:29.290Z,99546.11
2017-12-26T08:37:33.562Z,99539.98
2017-12-26T08:38:37.718Z,99552.76
2017-12-26T08:39:41.879Z,99556.81
2017-12-26T08:40:46.049Z,99564.24
2017-12-26T08:41:50.543Z,99551.87
2017-12-26T08:42:55.610Z,99545.23
2017-12-26T08:43:59.788Z,99563.69
2017-12-26T08:45:05.910Z,99566.37
2017-12-26T08:46:10.317Z,99559.31
2017-12-26T08:47:14.986Z,99564.48
2017-12-26T08:48:22.579Z,99557.84
2017-12-26T08:49:26.711Z,99562.80
2017-12-26T08:50:30.934Z,99566.86
2017-12-26T08:51:35.216Z,99567.83
2017-12-26T08:52:39.438Z,99573.12
2017-12-26T08:53:44.038Z,99560.32
2017-12-26T08:54:49.277Z,99566.41
2017-12-26T08:55:54.478Z,99571.72
2017-12-26T08:56:58.639Z,99565.92
2017-12-26T08:58:02.818Z,99573.37
2017-12-26T08:59:07.232Z,99576.02
2017-12-26T09:00:24.822Z,99564.94
2017-12-26T09:01:29.126Z,99577.34
2017-12-26T09:02:33.363Z,99568.59
2017-12-26T09:03:37.569Z,99561.38
2017-12-26T09:04:41.779Z,99577.64
2017-12-26T09:05:46.110Z,99564.88
2017-12-26T09:06:50.623Z,99577.20
2017-12-26T09:07:55.527Z,99577.20
2017-12-26T09:08:59.713Z,99581.95
2017-12-26T09:10:04.379Z,99587.17
2017-12-26T09:11:09.711Z,99589.81
2017-12-26T09:12:15.962Z,99597.70
2017-12-26T09:13:21.349Z,99594.26
2017-12-26T09:14:25.730Z,99596.03
2017-12-26T09:15:30.085Z,99599.64
2017-12-26T09:16:34.463Z,99599.25
2017-12-26T09:17:38.729Z,99607.17
2017-12-26T09:18:43.243Z,99597.05
2017-12-26T09:19:47.426Z,99595.25
2017-12-26T09:20:51.621Z,99606.26
2017-12-26T09:21:56.302Z,99615.92
2017-12-26T09:23:00.544Z,99606.67
2017-12-26T09:24:05.040Z,99609.67
2017-12-26T09:25:09.184Z,99627.75
2017-12-26T09:26:13.910Z,99613.16
2017-12-26T09:27:18.159Z,99623.72
2017-12-26T09:28:22.362Z,99616.23
2017-12-26T09:29:26.568Z,99619.75
2017-12-26T09:30:31.258Z,99623.74
2017-12-26T09:31:35.470Z,99617.56
2017-12-26T09:32:39.771Z,99637.85
2017-12-26T09:33:43.945Z,99623.77
2017-12-26T09:34:48.221Z,99629.60
2017-12-26T09:35:52.358Z,99626.11
2017-12-26T09:36:56.862Z,99617.34
2017-12-26T09:38:01.031Z,99629.77
2017-12-26T09:39:05.970Z,99612.21
2017-12-26T09:40:10.120Z,99614.41
2017-12-26T09:41:14.295Z,99613.85
2017-12-26T09:42:18.669Z,99612.12
2017-12-26T09:43:22.866Z,99611.20
2017-12-26T09:44:27.126Z,99605.83
2017-12-26T09:45:31.463Z,99613.26
2017-12-26T09:46:35.609Z,99611.11
2017-12-26T09:47:39.838Z,99600.48
2017-12-26T09:48:46.701Z,99619.32
2017-12-26T09:49:50.897Z,99614.04
2017-12-26T09:50:56.142Z,99602.11
2017-12-26T09:52:00.298Z,99602.56
2017-12-26T09:53:04.533Z,99623.72
2017-12-26T09:54:17.067Z,99612.62
2017-12-26T09:55:21.322Z,99610.85
2017-12-26T09:56:26.347Z,99617.42
2017-12-26T09:57:30.632Z,99609.03
2017-12-26T09:58:35.499Z,99629.34
2017-12-26T09:59:39.724Z,99619.61
2017-12-26T10:00:51.952Z,99634.56
2017-12-26T10:01:58.819Z,99625.30
2017-12-26T10:03:03.070Z,99677.77
2017-12-26T10:04:07.306Z,99616.94
2017-12-26T10:05:11.774Z,99623.60
2017-12-26T10:06:17.047Z,99634.14
2017-12-26T10:07:21.658Z,99613.44
2017-12-26T10:08:26.134Z,99625.77
2017-12-26T10:09:30.455Z,99635.03
2017-12-26T10:10:34.635Z,99628.91
2017-12-26T10:11:38.814Z,99639.07
2017-12-26T10:12:43.099Z,99617.06
2017-12-26T10:13:47.268Z,99622.33
2017-12-26T10:14:51.469Z,99633.80
2017-12-26T10:15:55.650Z,99629.01
2017-12-26T10:16:59.903Z,99629.51
2017-12-26T10:18:04.161Z,99617.23
2017-12-26T10:19:08.419Z,99622.97
2017-12-26T10:20:12.601Z,99636.71
2017-12-26T10:21:16.790Z,99620.96
2017-12-26T10:22:21.042Z,99626.69
2017-12-26T10:23:25.608Z,99615.67
2017-12-26T10:24:30.204Z,99616.02
2017-12-26T10:25:34.395Z,99616.88
2017-12-26T10:26:38.589Z,99612.48
2017-12-26T10:27:43.775Z,99611.09
2017-12-26T10:28:47.979Z,99628.26
2017-12-26T10:29:53.184Z,99621.69
2017-12-26T10:30:57.692Z,99620.42
2017-12-26T10:32:02.149Z,99624.38
2017-12-26T10:33:06.832Z,99614.69
2017-12-26T10:34:11.066Z,99604.02
2017-12-26T10:35:15.603Z,99611.49
2017-12-26T10:36:19.849Z,99634.41
2017-12-26T10:37:24.137Z,99620.66
2017-12-26T10:38:28.313Z,99626.81
2017-12-26T10:39:32.564Z,99622.84
2017-12-26T10:40:36.871Z,99615.77
2017-12-26T10:41:42.044Z,99634.20
2017-12-26T10:42:47.555Z,99632.38
2017-12-26T10:43:52.710Z,99630.53
2017-12-26T10:44:56.917Z,99638.42
2017-12-26T10:46:01.560Z,99636.67
2017-12-26T10:47:05.725Z,99637.09
2017-12-26T10:48:10.332Z,99622.52
2017-12-26T10:49:14.733Z,99635.70
2017-12-26T10:50:18.937Z,99633.41
2017-12-26T10:51:24.121Z,99630.33
2017-12-26T10:52:28.314Z,99643.16
2017-12-26T10:53:32.852Z,99633.02
2017-12-26T10:54:37.133Z,99642.27
2017-12-26T10:55:41.412Z,99643.91
2017-12-26T10:56:46.535Z,99620.56
2017-12-26T10:57:51.276Z,99640.05
2017-12-26T10:58:55.444Z,99614.05
2017-12-26T10:59:59.663Z,99634.08
2017-12-26T11:01:04.180Z,99636.45
2017-12-26T11:02:08.382Z,99636.47
2017-12-26T11:03:12.755Z,99639.59
2017-12-26T11:04:17.435Z,99647.50
2017-12-26T11:05:22.150Z,99638.71
2017-12-26T11:06:27.977Z,99653.25
2017-12-26T11:07:32.143Z,99643.11
2017-12-26T11:20:15.060Z,99633.72
2017-12-26T11:21:19.253Z,99633.96
2017-12-26T11:22:23.456Z,99631.53
2017-12-26T11:23:27.821Z,99627.02
2017-12-26T11:24:32.322Z,99623.98
2017-12-26T11:25:36.891Z,99621.42
2017-12-26T11:26:41.080Z,99620.59
2017-12-26T11:27:45.402Z,99638.59
2017-12-26T11:28:49.606Z,99630.05
2017-12-26T11:29:53.810Z,99643.49
2017-12-26T11:30:58.440Z,99639.19
2017-12-26T11:32:03.161Z,99630.05
2017-12-26T11:33:07.508Z,99630.14
2017-12-26T11:34:11.761Z,99649.56
2017-12-26T11:35:16.237Z,99634.32
2017-12-26T11:36:20.543Z,99637.36
2017-12-26T11:37:24.973Z,99631.05
2017-12-26T11:38:29.191Z,99643.57
2017-12-26T11:39:33.410Z,99626.12
2017-12-26T11:40:37.982Z,99621.58
2017-12-26T11:41:43.158Z,99624.98
2017-12-26T11:42:47.333Z,99624.00
2017-12-26T11:43:52.804Z,99630.38
2017-12-26T11:44:57.761Z,99622.34
2017-12-26T11:46:02.249Z,99629.50
2017-12-26T11:47:06.404Z,99636.55
2017-12-26T11:48:16.111Z,99619.00
2017-12-26T11:49:20.327Z,99612.22
2017-12-26T11:50:24.488Z,99647.91
2017-12-26T11:51:28.664Z,99631.75
2017-12-26T11:52:32.960Z,99628.08
2017-12-26T11:53:37.287Z,99612.48
2017-12-26T11:54:41.512Z,99624.41
2017-12-26T11:55:46.050Z,99626.63
2017-12-26T11:56:54.173Z,99626.59
2017-12-26T11:58:00.663Z,99635.87
2017-12-26T11:59:04.940Z,99617.88
2017-12-26T12:00:09.495Z,99626.66
2017-12-26T12:01:13.679Z,99629.93
2017-12-26T12:02:18.102Z,99619.30
2017-12-26T12:03:22.428Z,99621.93
2017-12-26T12:04:26.645Z,99641.19
2017-12-26T12:05:30.973Z,99628.11
2017-12-26T12:06:35.484Z,99617.52
2017-12-26T12:07:39.674Z,99616.09
2017-12-26T12:08:44.815Z,99620.09
2017-12-26T12:09:49.063Z,99612.62
2017-12-26T12:10:53.318Z,99623.49
2017-12-26T12:13:04.814Z,99625.70
2017-12-26T12:14:09.111Z,99630.27
2017-12-26T12:15:14.840Z,99627.61
2017-12-26T12:16:19.503Z,99630.51
2017-12-26T12:17:23.953Z,99624.94
2017-12-26T12:18:28.275Z,99635.63
2017-12-26T12:19:32.785Z,99638.84
2017-12-26T12:20:36.942Z,99633.94
2017-12-26T12:21:41.131Z,99636.57
2017-12-26T12:22:46.063Z,99661.14
2017-12-26T12:23:51.301Z,99655.96
2017-12-26T12:24:55.667Z,99636.45
2017-12-26T12:26:00.318Z,99659.86
2017-12-26T12:27:04.551Z,99649.75
2017-12-26T12:28:08.753Z,99639.94
2017-12-26T12:29:13.134Z,99640.81
2017-12-26T12:30:19.261Z,99646.08
2017-12-26T12:31:23.606Z,99625.63
2017-12-26T12:32:37.875Z,99633.94
2017-12-26T12:33:42.126Z,99650.24
2017-12-26T12:34:46.427Z,99635.86
2017-12-26T12:35:50.742Z,99630.53
2017-12-26T12:36:55.430Z,99639.92
2017-12-26T12:37:59.596Z,99632.91
2017-12-26T12:39:04.427Z,99650.74
2017-12-26T12:40:09.066Z,99651.59
2017-12-26T12:41:13.304Z,99623.70
2017-12-26T12:42:17.809Z,99640.30
2017-12-26T12:43:22.516Z,99655.50
2017-12-26T12:44:26.765Z,99643.22
2017-12-26T12:45:31.726Z,99643.96
2017-12-26T12:46:36.658Z,99640.69
2017-12-26T12:47:41.022Z,99652.66
2017-12-26T12:48:45.522Z,99661.94
2017-12-26T12:49:50.043Z,99649.23
2017-12-26T12:50:54.917Z,99677.53